Russell, Iowa
Current Conditions -  °F | °C
As of 10:15 AM on Thursday 30 Oct 2014 (Local Time) from KCNC Reporting Station
Clear Clear  
Wind Chill: 46°   Ceiling: Unl
Heat Index: 48°   Visibility: 9mi
Dew Point: 37°   Wind: 6mph
Humidity: 66%   Direction: 110°ESE
Pressure: 30.03"   Gusts: NA
Location:  40.98°N, 93.2°W
Report Text: KCNC 301515Z AUTO 11005KT 9SM CLR 09/03 A3003 RMK AO2
Loading
Personal Weather Stations






























Interactive Weather Map
Tropical Storm Tracking
New forecast layout! Learn more

10-Day Weather Forecast

Advertisements
Track Severe Weather on mobile